createdAt,value
2017-07-24T00:02:00.071Z,99.30
2017-07-24T00:04:26.495Z,99.10
2017-07-24T00:06:52.943Z,98.60
2017-07-24T00:09:19.336Z,98.60
2017-07-24T00:11:45.793Z,98.80
2017-07-24T00:14:12.211Z,98.80
2017-07-24T00:16:38.624Z,98.90
2017-07-24T00:19:05.787Z,99.20
2017-07-24T00:21:32.907Z,99.00
2017-07-24T00:23:59.290Z,99.00
2017-07-24T00:26:25.683Z,98.90
2017-07-24T00:28:52.103Z,99.00
2017-07-24T00:31:18.476Z,99.20
2017-07-24T00:33:44.918Z,98.90
2017-07-24T00:36:11.339Z,99.20
2017-07-24T00:38:37.716Z,99.00
2017-07-24T00:41:04.228Z,99.20
2017-07-24T00:43:30.614Z,99.10
2017-07-24T00:45:57.011Z,99.30
2017-07-24T00:48:23.531Z,99.20
2017-07-24T00:50:49.906Z,99.30
2017-07-24T00:53:16.273Z,99.10
2017-07-24T00:55:42.849Z,99.20
2017-07-24T00:58:09.226Z,99.00
2017-07-24T01:00:36.323Z,99.00
2017-07-24T01:03:02.723Z,99.10
2017-07-24T01:05:29.107Z,99.00
2017-07-24T01:07:55.667Z,98.80
2017-07-24T01:10:22.767Z,98.70
2017-07-24T01:12:49.158Z,98.70
2017-07-24T01:15:15.543Z,99.00
2017-07-24T01:17:41.899Z,99.20
2017-07-24T01:20:08.319Z,99.30
2017-07-24T01:22:34.704Z,99.30
2017-07-24T01:25:01.107Z,99.20
2017-07-24T01:27:28.226Z,99.50
2017-07-24T01:29:54.663Z,99.50
2017-07-24T01:32:21.067Z,99.40
2017-07-24T01:34:47.462Z,99.30
2017-07-24T01:37:14.711Z,99.50
2017-07-24T01:39:41.835Z,99.70
2017-07-24T01:42:08.263Z,99.60
2017-07-24T01:44:34.706Z,99.80
2017-07-24T01:47:01.112Z,99.80
2017-07-24T01:49:27.511Z,99.80
2017-07-24T01:51:53.924Z,99.60
2017-07-24T01:54:20.347Z,99.20
2017-07-24T01:56:47.518Z,99.50
2017-07-24T01:59:13.936Z,99.50
2017-07-24T02:01:41.123Z,99.60
2017-07-24T02:04:07.550Z,99.60
2017-07-24T02:06:33.919Z,99.50
2017-07-24T02:09:00.323Z,99.50
2017-07-24T02:11:26.782Z,98.50
2017-07-24T02:13:53.265Z,98.80
2017-07-24T02:16:19.702Z,98.60
2017-07-24T02:18:46.092Z,98.60
2017-07-24T02:21:12.467Z,98.80
2017-07-24T02:23:38.902Z,99.00
2017-07-24T02:26:05.272Z,98.60
2017-07-24T02:28:32.503Z,98.70
2017-07-24T02:30:58.910Z,99.10
2017-07-24T02:33:25.344Z,99.10
2017-07-24T02:35:51.747Z,99.30
2017-07-24T02:38:18.135Z,98.90
2017-07-24T02:40:44.527Z,99.00
2017-07-24T02:43:11.634Z,98.60
2017-07-24T02:45:38.040Z,98.60
2017-07-24T02:48:04.410Z,98.90
2017-07-24T02:50:30.859Z,99.00
2017-07-24T02:52:57.243Z,99.10
2017-07-24T02:55:23.615Z,98.90
2017-07-24T02:57:50.049Z,98.40
2017-07-24T03:00:16.491Z,98.40
2017-07-24T03:02:49.772Z,97.90
2017-07-24T03:05:16.190Z,98.00
2017-07-24T03:07:42.582Z,97.80
2017-07-24T03:10:09.011Z,98.30
2017-07-24T03:12:35.394Z,98.20
2017-07-24T03:15:01.812Z,98.90
2017-07-24T03:17:28.227Z,99.10
2017-07-24T03:20:02.424Z,99.30
2017-07-24T03:22:28.811Z,99.30
2017-07-24T03:24:55.180Z,99.90
2017-07-24T03:27:21.579Z,99.90
2017-07-24T03:29:48.947Z,99.90
2017-07-24T03:32:15.339Z,99.90
2017-07-24T03:34:41.739Z,99.90
2017-07-24T03:37:08.132Z,99.90
2017-07-24T03:39:34.541Z,99.90
2017-07-24T03:42:00.955Z,99.90
2017-07-24T03:44:27.338Z,99.90
2017-07-24T03:46:53.724Z,99.90
2017-07-24T03:49:20.151Z,99.90
2017-07-24T03:51:46.554Z,99.90
2017-07-24T03:54:12.942Z,99.90
2017-07-24T03:56:39.351Z,99.90
2017-07-24T03:59:05.715Z,99.90
2017-07-24T04:01:32.125Z,99.90
2017-07-24T04:03:58.539Z,99.90
2017-07-24T04:06:24.914Z,99.90
2017-07-24T04:08:51.311Z,99.90
2017-07-24T04:11:17.720Z,99.90
2017-07-24T04:13:44.139Z,99.90
2017-07-24T04:16:10.527Z,99.90
2017-07-24T04:18:36.898Z,99.90
2017-07-24T04:21:04.018Z,99.90
2017-07-24T04:23:30.436Z,99.90
2017-07-24T04:25:56.805Z,99.90
2017-07-24T04:28:24.070Z,99.10
2017-07-24T04:30:57.498Z,99.10
2017-07-24T04:33:23.990Z,98.70
2017-07-24T04:35:51.111Z,99.30
2017-07-24T04:38:17.491Z,99.20
2017-07-24T04:40:44.007Z,98.90
2017-07-24T04:43:11.132Z,99.40
2017-07-24T04:45:37.590Z,99.40
2017-07-24T04:48:04.727Z,99.80
2017-07-24T04:50:31.892Z,99.90
2017-07-24T04:53:00.801Z,99.40
2017-07-24T04:55:27.239Z,99.40
2017-07-24T04:57:53.610Z,99.80
2017-07-24T05:00:20.012Z,99.50
2017-07-24T05:02:46.411Z,98.90
2017-07-24T05:05:13.531Z,99.80
2017-07-24T05:07:39.920Z,99.70
2017-07-24T05:10:06.372Z,99.90
2017-07-24T05:12:32.855Z,99.90
2017-07-24T05:14:59.595Z,99.90
2017-07-24T05:17:26.091Z,99.90
2017-07-24T05:19:52.796Z,99.90
2017-07-24T05:22:19.231Z,99.90
2017-07-24T05:24:45.612Z,99.90
2017-07-24T05:27:12.003Z,99.90
2017-07-24T05:29:38.391Z,99.60
2017-07-24T05:32:05.562Z,99.90
2017-07-24T05:34:31.951Z,99.90
2017-07-24T05:36:58.498Z,99.50
2017-07-24T05:39:24.891Z,99.80
2017-07-24T05:41:58.232Z,99.80
2017-07-24T05:44:25.384Z,99.20
2017-07-24T05:46:51.788Z,99.30
2017-07-24T05:49:18.147Z,99.50
2017-07-24T05:51:44.560Z,99.90
2017-07-24T05:54:10.956Z,99.90
2017-07-24T05:56:37.480Z,99.70
2017-07-24T05:59:03.866Z,99.90
2017-07-24T06:01:30.299Z,99.40
2017-07-24T06:03:56.720Z,99.40
2017-07-24T06:06:23.092Z,99.90
2017-07-24T06:08:50.919Z,99.90
2017-07-24T06:11:17.371Z,99.90
2017-07-24T06:13:43.783Z,99.90
2017-07-24T06:16:10.287Z,99.90
2017-07-24T06:18:36.656Z,99.90
2017-07-24T06:21:03.153Z,99.80
2017-07-24T06:23:29.518Z,99.50
2017-07-24T06:25:55.987Z,99.90
2017-07-24T06:28:22.411Z,99.70
2017-07-24T06:30:50.172Z,99.70
2017-07-24T06:33:17.359Z,99.40
2017-07-24T06:35:43.832Z,99.40
2017-07-24T06:38:10.647Z,99.70
2017-07-24T06:40:37.042Z,99.30
2017-07-24T06:43:04.140Z,99.20
2017-07-24T06:45:30.543Z,99.10
2017-07-24T06:47:56.924Z,99.40
2017-07-24T06:50:23.318Z,98.80
2017-07-24T06:52:49.719Z,98.80
2017-07-24T06:55:16.843Z,99.80
2017-07-24T06:57:43.244Z,99.80
2017-07-24T07:00:10.251Z,99.70
2017-07-24T07:02:37.365Z,99.90
2017-07-24T07:05:03.887Z,99.90
2017-07-24T07:07:30.251Z,99.80
2017-07-24T07:09:56.626Z,99.90
2017-07-24T07:12:23.043Z,99.90
2017-07-24T07:14:49.464Z,99.80
2017-07-24T07:17:16.032Z,99.80
2017-07-24T07:19:42.415Z,99.00
2017-07-24T07:22:09.723Z,98.80
2017-07-24T07:24:36.360Z,98.50
2017-07-24T07:27:02.742Z,99.10
2017-07-24T07:29:29.920Z,98.30
2017-07-24T07:31:56.296Z,98.30
2017-07-24T07:34:22.735Z,98.40
2017-07-24T07:36:49.883Z,98.80
2017-07-24T07:39:17.202Z,98.80
2017-07-24T07:41:43.879Z,98.00
2017-07-24T07:44:10.411Z,97.70
2017-07-24T07:46:37.074Z,98.40
2017-07-24T07:49:05.239Z,98.60
2017-07-24T07:51:31.611Z,98.60
2017-07-24T07:53:58.354Z,98.80
2017-07-24T07:56:26.944Z,98.20
2017-07-24T07:58:53.364Z,98.10
2017-07-24T08:01:19.849Z,98.00
2017-07-24T08:03:46.303Z,97.80
2017-07-24T08:06:13.494Z,98.10
2017-07-24T08:08:39.949Z,97.80
2017-07-24T08:11:06.523Z,98.20
2017-07-24T08:13:32.939Z,98.60
2017-07-24T08:15:59.407Z,98.70
2017-07-24T08:18:25.887Z,99.00
2017-07-24T08:20:52.266Z,98.30
2017-07-24T08:23:19.516Z,98.30
2017-07-24T08:25:46.618Z,98.30
2017-07-24T08:28:13.045Z,98.30
2017-07-24T08:30:39.443Z,97.80
2017-07-24T08:33:05.847Z,98.40
2017-07-24T08:35:32.574Z,98.00
2017-07-24T08:37:59.949Z,97.80
2017-07-24T08:40:27.115Z,98.00
2017-07-24T08:42:53.513Z,97.90
2017-07-24T08:45:19.918Z,98.30
2017-07-24T08:47:46.307Z,98.20
2017-07-24T08:50:13.451Z,98.00
2017-07-24T08:52:40.583Z,98.10
2017-07-24T08:55:07.132Z,98.10
2017-07-24T08:57:34.431Z,99.30
2017-07-24T09:00:00.795Z,99.30
2017-07-24T09:02:27.199Z,99.40
2017-07-24T09:04:53.635Z,99.70
2017-07-24T09:07:20.007Z,99.90
2017-07-24T09:09:46.371Z,99.90
2017-07-24T09:12:12.779Z,99.90
2017-07-24T09:14:39.175Z,99.90
2017-07-24T09:17:05.599Z,98.90
2017-07-24T09:19:31.959Z,99.80
2017-07-24T09:21:58.331Z,99.80
2017-07-24T09:24:24.749Z,99.20
2017-07-24T09:26:58.922Z,99.90
2017-07-24T09:29:25.347Z,99.90
2017-07-24T09:31:51.732Z,99.90
2017-07-24T09:34:18.128Z,99.90
2017-07-24T09:36:44.534Z,99.90
2017-07-24T09:39:11.087Z,99.90
2017-07-24T09:41:37.464Z,99.90
2017-07-24T09:44:03.859Z,99.90
2017-07-24T09:46:30.254Z,99.90
2017-07-24T09:48:56.717Z,98.90
2017-07-24T09:51:23.159Z,99.90
2017-07-24T09:53:49.556Z,99.90
2017-07-24T09:56:15.948Z,99.90
2017-07-24T09:58:43.311Z,99.20
2017-07-24T10:01:10.439Z,98.70
2017-07-24T10:03:36.828Z,98.70
2017-07-24T10:06:03.251Z,98.30
2017-07-24T10:08:29.635Z,98.40
2017-07-24T10:10:56.764Z,99.90
2017-07-24T10:13:23.186Z,99.90
2017-07-24T10:15:49.594Z,99.70
2017-07-24T10:18:16.104Z,99.90
2017-07-24T10:20:43.343Z,99.90
2017-07-24T10:23:09.848Z,99.90
2017-07-24T10:25:36.303Z,99.90
2017-07-24T10:28:02.867Z,99.90
2017-07-24T10:30:29.311Z,99.90
2017-07-24T10:32:55.685Z,98.60
2017-07-24T10:35:22.087Z,99.00
2017-07-24T10:37:48.475Z,99.90
2017-07-24T10:40:15.583Z,99.60
2017-07-24T10:42:41.967Z,99.50
2017-07-24T10:45:08.360Z,99.90
2017-07-24T10:47:34.771Z,99.90
2017-07-24T10:50:01.144Z,99.90
2017-07-24T10:52:27.536Z,99.90
2017-07-24T10:54:53.946Z,99.90
2017-07-24T10:57:20.327Z,99.90
2017-07-24T10:59:46.702Z,99.90
2017-07-24T11:02:13.091Z,99.90
2017-07-24T11:04:39.499Z,99.90
2017-07-24T11:07:05.887Z,99.90
2017-07-24T11:09:33.003Z,99.90
2017-07-24T11:11:59.397Z,99.90
2017-07-24T11:14:25.795Z,99.50
2017-07-24T11:16:52.938Z,99.10
2017-07-24T11:19:19.327Z,99.10
2017-07-24T11:21:45.736Z,99.50
2017-07-24T11:24:12.134Z,98.00
2017-07-24T11:26:39.252Z,97.00
2017-07-24T11:29:05.659Z,96.70
2017-07-24T11:31:32.030Z,98.80
2017-07-24T11:33:58.411Z,99.00
2017-07-24T11:36:24.900Z,98.20
2017-07-24T11:38:51.263Z,99.00
2017-07-24T11:41:17.637Z,99.50
2017-07-24T11:43:44.067Z,99.90
2017-07-24T11:46:10.439Z,99.30
2017-07-24T11:48:36.819Z,98.80
2017-07-24T11:51:03.254Z,98.80
2017-07-24T11:53:29.651Z,99.10
2017-07-24T11:55:56.122Z,98.20
2017-07-24T11:58:22.527Z,97.60
2017-07-24T12:00:48.916Z,97.40
2017-07-24T12:03:15.315Z,97.80
2017-07-24T12:05:41.715Z,97.90
2017-07-24T12:08:08.131Z,97.80
2017-07-24T12:10:34.523Z,97.60
2017-07-24T12:13:01.012Z,98.60
2017-07-24T12:15:28.176Z,99.90
2017-07-24T12:17:54.616Z,99.90
2017-07-24T12:20:21.055Z,99.90
2017-07-24T12:22:47.479Z,99.90
2017-07-24T12:25:13.860Z,98.60
2017-07-24T12:27:40.235Z,97.10
2017-07-24T12:30:06.630Z,96.00
2017-07-24T12:32:33.012Z,96.30
2017-07-24T12:34:59.410Z,95.60
2017-07-24T12:37:26.574Z,92.80
2017-07-24T12:39:53.690Z,93.30
2017-07-24T12:42:20.139Z,93.30
2017-07-24T12:44:46.713Z,91.90
2017-07-24T12:47:13.150Z,93.00
2017-07-24T12:49:39.591Z,91.20
2017-07-24T12:52:05.999Z,89.80
2017-07-24T12:54:32.366Z,92.30
2017-07-24T12:56:58.747Z,88.80
2017-07-24T12:59:25.874Z,86.20
2017-07-24T13:01:53.016Z,79.80
2017-07-24T13:04:19.432Z,78.90
2017-07-24T13:06:45.832Z,78.10
2017-07-24T13:09:12.207Z,75.70
2017-07-24T13:11:38.599Z,76.00
2017-07-24T13:14:05.002Z,79.60
2017-07-24T13:16:31.480Z,66.30
2017-07-24T13:18:57.847Z,70.40
2017-07-24T13:21:24.255Z,70.90
2017-07-24T13:23:50.647Z,69.40
2017-07-24T13:26:17.799Z,62.70
2017-07-24T13:28:44.194Z,62.70
2017-07-24T13:31:10.603Z,61.90
2017-07-24T13:33:37.011Z,64.70
2017-07-24T13:36:03.422Z,60.60
2017-07-24T13:38:29.791Z,57.90
2017-07-24T13:40:56.176Z,60.10
2017-07-24T13:43:22.620Z,58.20
2017-07-24T13:45:49.011Z,64.40
2017-07-24T13:48:15.426Z,58.10
2017-07-24T13:50:41.807Z,56.30
2017-07-24T13:53:08.199Z,58.10
2017-07-24T13:55:34.626Z,58.80
2017-07-24T13:58:01.043Z,62.10
2017-07-24T14:00:27.498Z,58.00
2017-07-24T14:02:53.868Z,58.60
2017-07-24T14:05:20.250Z,61.00
2017-07-24T14:07:46.664Z,61.00
2017-07-24T14:10:13.052Z,59.10
2017-07-24T14:12:39.427Z,57.90
2017-07-24T14:15:05.868Z,57.30
2017-07-24T14:17:32.267Z,58.70
2017-07-24T14:19:58.624Z,59.20
2017-07-24T14:22:25.283Z,58.20
2017-07-24T14:24:51.704Z,56.40
2017-07-24T14:27:18.115Z,55.60
2017-07-24T14:29:44.515Z,57.20
2017-07-24T14:32:10.927Z,52.60
2017-07-24T14:34:37.335Z,52.40
2017-07-24T14:37:03.775Z,52.80
2017-07-24T14:39:30.154Z,55.20
2017-07-24T14:41:56.551Z,55.70
2017-07-24T14:44:23.975Z,53.80
2017-07-24T14:46:50.380Z,53.80
2017-07-24T14:49:16.735Z,52.60
2017-07-24T14:51:43.139Z,53.00
2017-07-24T14:54:10.296Z,52.60
2017-07-24T14:56:37.428Z,53.20
2017-07-24T14:59:03.834Z,53.10
2017-07-24T15:01:30.239Z,53.80
2017-07-24T15:03:56.687Z,55.50
2017-07-24T15:06:23.422Z,54.70
2017-07-24T15:08:49.922Z,57.30
2017-07-24T15:11:16.306Z,59.00
2017-07-24T15:13:42.767Z,59.40
2017-07-24T15:16:09.150Z,59.80
2017-07-24T15:18:35.558Z,58.80
2017-07-24T15:21:01.975Z,61.80
2017-07-24T15:23:29.138Z,60.30
2017-07-24T15:25:55.615Z,60.30
2017-07-24T15:28:22.117Z,61.10
2017-07-24T15:30:48.490Z,61.10
2017-07-24T15:33:14.878Z,60.30
2017-07-24T15:35:41.359Z,60.60
2017-07-24T15:38:07.783Z,62.00
2017-07-24T15:40:34.146Z,62.60
2017-07-24T15:43:00.515Z,63.40
2017-07-24T15:45:26.988Z,67.00
2017-07-24T15:47:53.442Z,65.70
2017-07-24T15:50:19.839Z,70.10
2017-07-24T15:52:46.222Z,67.60
2017-07-24T15:55:13.543Z,67.20
2017-07-24T15:57:39.940Z,67.20
2017-07-24T16:00:06.339Z,68.80
2017-07-24T16:02:33.483Z,72.40
2017-07-24T16:05:00.768Z,72.60
2017-07-24T16:07:27.143Z,72.80
2017-07-24T16:09:53.551Z,73.10
2017-07-24T16:12:19.931Z,73.70
2017-07-24T16:14:46.442Z,72.90
2017-07-24T16:17:12.871Z,74.00
2017-07-24T16:19:39.250Z,73.30
2017-07-24T16:22:06.404Z,74.90
2017-07-24T16:24:32.883Z,74.80
2017-07-24T16:26:59.274Z,75.00
2017-07-24T16:29:25.686Z,72.60
2017-07-24T16:31:52.807Z,73.40
2017-07-24T16:34:19.236Z,73.20
2017-07-24T16:36:45.623Z,72.80
2017-07-24T16:39:11.983Z,74.60
2017-07-24T16:41:38.387Z,72.30
2017-07-24T16:44:04.839Z,74.40
2017-07-24T16:46:31.303Z,75.00
2017-07-24T16:48:57.680Z,75.00
2017-07-24T16:51:24.107Z,76.70
2017-07-24T16:53:51.298Z,75.00
2017-07-24T16:56:17.740Z,75.00
2017-07-24T16:58:44.130Z,74.00
2017-07-24T17:01:10.771Z,77.20
2017-07-24T17:03:37.149Z,75.70
2017-07-24T17:06:03.527Z,75.70
2017-07-24T17:08:30.060Z,75.90
2017-07-24T17:10:56.427Z,77.40
2017-07-24T17:13:22.876Z,76.20
2017-07-24T17:15:49.398Z,75.70
2017-07-24T17:18:15.784Z,75.70
2017-07-24T17:20:42.214Z,78.70
2017-07-24T17:23:09.338Z,78.20
2017-07-24T17:25:35.851Z,78.10
2017-07-24T17:28:02.291Z,81.40
2017-07-24T17:30:28.679Z,82.10
2017-07-24T17:32:55.067Z,81.60
2017-07-24T17:35:21.507Z,81.30
2017-07-24T17:37:47.887Z,83.60
2017-07-24T17:40:14.323Z,82.90
2017-07-24T17:42:40.707Z,83.80
2017-07-24T17:45:07.096Z,84.60
2017-07-24T17:47:33.576Z,85.80
2017-07-24T17:50:00.240Z,85.90
2017-07-24T17:52:27.355Z,85.80
2017-07-24T17:54:53.859Z,85.00
2017-07-24T17:57:20.259Z,85.10
2017-07-24T17:59:46.668Z,85.50
2017-07-24T18:02:13.195Z,83.60
2017-07-24T18:04:39.727Z,82.60
2017-07-24T18:07:06.137Z,83.10
2017-07-24T18:09:32.831Z,83.20
2017-07-24T18:11:59.960Z,83.10
2017-07-24T18:14:26.472Z,83.10
2017-07-24T18:16:52.971Z,84.70
2017-07-24T18:19:19.516Z,85.10
2017-07-24T18:21:45.950Z,86.70
2017-07-24T18:24:12.524Z,86.60
2017-07-24T18:26:39.076Z,87.40
2017-07-24T18:29:06.298Z,90.40
2017-07-24T18:31:32.798Z,90.10
2017-07-24T18:33:59.399Z,89.10
2017-07-24T18:36:26.524Z,87.80
2017-07-24T18:38:52.912Z,87.00
2017-07-24T18:41:19.469Z,90.00
2017-07-24T18:43:46.035Z,90.80
2017-07-24T18:46:12.420Z,91.10
2017-07-24T18:48:38.799Z,88.90
2017-07-24T18:51:05.223Z,90.50
2017-07-24T18:53:31.615Z,88.60
2017-07-24T18:55:58.215Z,91.80
2017-07-24T18:58:25.337Z,92.20
2017-07-24T19:00:51.756Z,92.10
2017-07-24T19:03:18.263Z,91.40
2017-07-24T19:05:44.688Z,91.90
2017-07-24T19:08:11.103Z,92.20
2017-07-24T19:10:38.231Z,90.40
2017-07-24T19:13:04.643Z,90.30
2017-07-24T19:15:31.219Z,91.00
2017-07-24T19:17:58.384Z,87.90
2017-07-24T19:20:25.366Z,87.80
2017-07-24T19:22:51.975Z,89.90
2017-07-24T19:25:20.348Z,92.60
2017-07-24T19:27:46.780Z,92.60
2017-07-24T19:30:13.231Z,90.00
2017-07-24T19:32:39.647Z,91.20
2017-07-24T19:35:06.124Z,92.60
2017-07-24T19:37:32.974Z,93.20
2017-07-24T19:39:59.655Z,91.60
2017-07-24T19:42:26.256Z,91.80
2017-07-24T19:44:56.504Z,90.20
2017-07-24T19:47:25.837Z,86.20
2017-07-24T19:49:52.246Z,86.10
2017-07-24T19:52:19.402Z,86.70
2017-07-24T19:54:45.854Z,86.50
2017-07-24T19:57:12.303Z,89.10
2017-07-24T19:59:38.695Z,88.30
2017-07-24T20:02:05.880Z,89.20
2017-07-24T20:04:32.458Z,89.20
2017-07-24T20:06:58.836Z,88.90
2017-07-24T20:09:25.215Z,90.30
2017-07-24T20:11:51.603Z,91.50
2017-07-24T20:14:18.035Z,92.10
2017-07-24T20:16:44.411Z,92.60
2017-07-24T20:19:10.807Z,92.80
2017-07-24T20:21:37.200Z,92.70
2017-07-24T20:24:03.699Z,91.70
2017-07-24T20:26:30.098Z,91.20
2017-07-24T20:28:56.511Z,92.00
2017-07-24T20:31:22.895Z,91.80
2017-07-24T20:33:49.335Z,92.40
2017-07-24T20:36:16.486Z,92.70
2017-07-24T20:38:42.895Z,92.70
2017-07-24T20:41:09.300Z,93.20
2017-07-24T20:43:35.691Z,93.20
2017-07-24T20:46:02.104Z,93.00
2017-07-24T20:48:28.627Z,92.80
2017-07-24T20:50:55.011Z,92.80
2017-07-24T20:53:22.122Z,89.30
2017-07-24T20:55:48.557Z,88.70
2017-07-24T20:58:14.950Z,84.30
2017-07-24T21:00:41.355Z,88.20
2017-07-24T21:03:08.500Z,83.60
2017-07-24T21:05:35.683Z,79.80
2017-07-24T21:08:02.087Z,80.40
2017-07-24T21:10:29.230Z,85.60
2017-07-24T21:12:55.631Z,84.90
2017-07-24T21:15:22.052Z,80.00
2017-07-24T21:17:48.442Z,80.00
2017-07-24T21:20:15.583Z,80.20
2017-07-24T21:22:42.700Z,76.20
2017-07-24T21:25:09.263Z,75.70
2017-07-24T21:27:35.712Z,73.40
2017-07-24T21:30:02.975Z,72.10
2017-07-24T21:32:29.361Z,72.00
2017-07-24T21:34:55.751Z,71.50
2017-07-24T21:37:22.155Z,71.90
2017-07-24T21:39:49.320Z,69.10
2017-07-24T21:42:15.723Z,69.10
2017-07-24T21:44:42.203Z,71.20
2017-07-24T21:47:08.575Z,69.10
2017-07-24T21:49:34.995Z,66.60
2017-07-24T21:52:01.366Z,66.10
2017-07-24T21:54:28.588Z,67.90
2017-07-24T21:56:54.963Z,67.00
2017-07-24T21:59:21.314Z,68.70
2017-07-24T22:01:47.698Z,66.00
2017-07-24T22:04:14.168Z,65.00
2017-07-24T22:06:40.555Z,68.90
2017-07-24T22:09:06.923Z,64.10
2017-07-24T22:11:33.327Z,66.60
2017-07-24T22:13:59.803Z,65.50
2017-07-24T22:16:26.208Z,68.20
2017-07-24T22:18:53.346Z,69.30
2017-07-24T22:21:19.743Z,69.30
2017-07-24T22:23:46.181Z,67.70
2017-07-24T22:26:12.579Z,71.60
2017-07-24T22:28:38.956Z,74.00
2017-07-24T22:31:05.354Z,73.40
2017-07-24T22:33:31.741Z,76.20
2017-07-24T22:35:58.219Z,73.90
2017-07-24T22:38:24.609Z,75.30
2017-07-24T22:40:51.006Z,74.50
2017-07-24T22:43:17.417Z,74.50
2017-07-24T22:45:43.851Z,72.10
2017-07-24T22:48:10.245Z,75.90
2017-07-24T22:50:37.383Z,76.70
2017-07-24T22:53:03.747Z,76.30
2017-07-24T22:55:30.199Z,76.40
2017-07-24T22:57:56.564Z,78.60
2017-07-24T23:00:23.015Z,79.60
2017-07-24T23:02:49.384Z,77.40
2017-07-24T23:05:15.820Z,79.00
2017-07-24T23:07:42.218Z,81.00
2017-07-24T23:10:09.335Z,80.60
2017-07-24T23:12:35.732Z,80.50
2017-07-24T23:15:02.171Z,80.10
2017-07-24T23:17:28.595Z,80.60
2017-07-24T23:19:54.976Z,82.30
2017-07-24T23:22:21.351Z,82.00
2017-07-24T23:24:47.808Z,81.20
2017-07-24T23:27:14.167Z,80.60
2017-07-24T23:29:40.571Z,79.10
2017-07-24T23:32:06.949Z,75.00
2017-07-24T23:34:34.142Z,83.70
2017-07-24T23:37:00.527Z,83.40
2017-07-24T23:39:26.897Z,83.00
2017-07-24T23:41:53.307Z,84.00
2017-07-24T23:44:20.491Z,84.20
2017-07-24T23:46:46.866Z,84.10
2017-07-24T23:49:13.262Z,84.80
2017-07-24T23:51:39.638Z,85.50
2017-07-24T23:54:06.258Z,84.30
2017-07-24T23:56:39.515Z,83.90
2017-07-24T23:59:05.934Z,82.90
